createdAt,value
2022-10-02T00:01:49.189Z,10.36
2022-10-02T00:06:57.850Z,10.34
2022-10-02T00:12:05.510Z,10.45
2022-10-02T00:17:16.564Z,10.35
2022-10-02T00:22:32.108Z,10.12
2022-10-02T00:27:47.206Z,10.00
2022-10-02T00:33:05.057Z,10.13
2022-10-02T00:38:19.106Z,10.02
2022-10-02T00:43:30.533Z,10.02
2022-10-02T00:49:06.043Z,10.05
2022-10-02T00:54:19.385Z,9.94
2022-10-02T00:59:39.972Z,9.85
2022-10-02T01:04:43.253Z,9.93
2022-10-02T01:09:47.089Z,9.87
2022-10-02T01:14:51.325Z,9.83
2022-10-02T01:19:54.387Z,9.91
2022-10-02T01:25:00.187Z,9.80
2022-10-02T01:30:07.455Z,9.85
2022-10-02T01:35:10.949Z,9.88
2022-10-02T01:40:26.239Z,9.94
2022-10-02T01:45:44.920Z,9.90
2022-10-02T01:50:57.792Z,9.81
2022-10-02T01:56:07.079Z,9.82
2022-10-02T02:01:17.614Z,10.07
2022-10-02T02:06:27.868Z,9.84
2022-10-02T02:11:32.743Z,10.15
2022-10-02T02:16:42.417Z,10.07
2022-10-02T02:21:48.792Z,10.25
2022-10-02T02:26:56.645Z,10.26
2022-10-02T02:32:01.673Z,10.26
2022-10-02T02:37:09.473Z,10.45
2022-10-02T02:42:18.150Z,10.78
2022-10-02T02:47:25.455Z,10.78
2022-10-02T02:52:33.273Z,10.71
2022-10-02T02:57:44.808Z,10.72
2022-10-02T03:02:50.470Z,10.78
2022-10-02T03:07:56.174Z,10.98
2022-10-02T03:13:11.709Z,10.66
2022-10-02T03:18:26.221Z,10.53
2022-10-02T03:23:35.996Z,10.66
2022-10-02T03:28:55.393Z,10.59
2022-10-02T03:34:01.719Z,10.77
2022-10-02T03:44:31.717Z,10.69
2022-10-02T03:49:34.799Z,10.87
2022-10-02T03:54:38.261Z,10.66
2022-10-02T03:59:48.074Z,10.90
2022-10-02T04:04:56.228Z,10.87
2022-10-02T04:10:15.273Z,10.88
2022-10-02T04:15:24.376Z,10.60
2022-10-02T04:20:33.497Z,10.78
2022-10-02T04:25:43.806Z,10.53
2022-10-02T04:30:47.945Z,10.81
2022-10-02T04:36:03.019Z,10.73
2022-10-02T04:41:20.962Z,10.67
2022-10-02T04:46:45.983Z,10.59
2022-10-02T04:52:05.939Z,10.66
2022-10-02T04:57:25.552Z,10.60
2022-10-02T05:02:42.643Z,10.73
2022-10-02T05:08:09.890Z,10.83
2022-10-02T05:13:30.016Z,10.68
2022-10-02T05:18:53.042Z,10.73
2022-10-02T05:24:10.309Z,10.73
2022-10-02T05:29:31.861Z,10.61
2022-10-02T05:34:48.314Z,10.89
2022-10-02T05:40:00.194Z,10.93
2022-10-02T05:45:06.336Z,10.98
2022-10-02T05:50:17.930Z,11.05
2022-10-02T05:55:26.857Z,11.05
2022-10-02T06:00:37.265Z,10.86
2022-10-02T06:05:50.231Z,11.02
2022-10-02T06:10:57.866Z,11.13
2022-10-02T06:16:09.956Z,10.78
2022-10-02T06:21:25.122Z,11.12
2022-10-02T06:26:39.210Z,11.28
2022-10-02T06:31:47.128Z,11.63
2022-10-02T06:37:19.323Z,11.44
2022-10-02T06:42:33.622Z,11.68
2022-10-02T06:47:50.298Z,11.39
2022-10-02T06:53:03.727Z,11.78
2022-10-02T06:58:24.072Z,11.68
2022-10-02T07:04:13.921Z,12.12
2022-10-02T07:09:34.162Z,12.16
2022-10-02T07:14:56.003Z,12.34
2022-10-02T07:20:15.607Z,11.98
2022-10-02T07:25:40.845Z,12.15
2022-10-02T07:30:57.397Z,11.93
2022-10-02T07:36:07.541Z,12.26
2022-10-02T07:41:37.191Z,12.05
2022-10-02T07:46:49.772Z,12.81
2022-10-02T07:52:00.134Z,12.93
2022-10-02T07:57:18.680Z,12.79
2022-10-02T08:02:29.758Z,12.71
2022-10-02T08:07:33.110Z,13.07
2022-10-02T08:12:42.073Z,13.57
2022-10-02T08:17:49.929Z,13.68
2022-10-02T08:22:56.962Z,13.40
2022-10-02T08:28:04.619Z,14.43
2022-10-02T08:33:15.143Z,14.09
2022-10-02T08:38:35.570Z,14.27
2022-10-02T08:44:26.255Z,14.80
2022-10-02T08:50:07.631Z,14.92
2022-10-02T08:55:32.451Z,14.55
2022-10-02T09:00:46.704Z,14.62
2022-10-02T09:06:14.757Z,14.47
2022-10-02T09:12:02.790Z,14.28
2022-10-02T09:17:36.211Z,14.53
2022-10-02T09:23:13.137Z,15.07
2022-10-02T09:28:52.232Z,14.49
2022-10-02T09:34:19.316Z,14.52
2022-10-02T09:39:58.139Z,14.78
2022-10-02T09:45:51.417Z,15.19
2022-10-02T09:51:36.846Z,14.71
2022-10-02T09:57:01.957Z,15.77
2022-10-02T10:02:35.322Z,15.25
2022-10-02T10:08:19.191Z,15.49
2022-10-02T10:14:00.189Z,14.56
2022-10-02T10:19:45.340Z,13.93
2022-10-02T10:25:19.808Z,12.30
2022-10-02T10:30:45.073Z,12.33
2022-10-02T10:36:05.788Z,13.96
2022-10-02T10:41:43.895Z,13.85
2022-10-02T10:47:18.267Z,13.50
2022-10-02T10:52:36.959Z,14.72
2022-10-02T10:57:53.218Z,16.45
2022-10-02T11:03:27.773Z,16.53
2022-10-02T11:09:08.583Z,16.48
2022-10-02T11:14:27.494Z,16.75
2022-10-02T11:19:51.117Z,17.42
2022-10-02T11:25:12.858Z,17.81
2022-10-02T11:30:25.354Z,17.86
2022-10-02T11:35:38.357Z,16.83
2022-10-02T11:40:58.352Z,16.87
2022-10-02T11:46:23.725Z,15.45
2022-10-02T11:51:50.830Z,17.31
2022-10-02T11:57:19.487Z,16.82
2022-10-02T12:02:35.199Z,16.73
2022-10-02T12:07:48.033Z,16.93
2022-10-02T12:13:03.683Z,17.74
2022-10-02T12:18:22.947Z,17.47
2022-10-02T12:23:54.592Z,16.50
2022-10-02T12:29:02.351Z,18.24
2022-10-02T12:34:28.831Z,18.42
2022-10-02T12:39:45.436Z,17.58
2022-10-02T12:45:19.408Z,16.53
2022-10-02T12:50:40.557Z,17.11
2022-10-02T12:56:07.560Z,18.21
2022-10-02T13:01:39.024Z,18.69
2022-10-02T13:07:20.751Z,18.73
2022-10-02T13:12:38.926Z,19.51
2022-10-02T13:17:51.617Z,20.23
2022-10-02T13:23:08.957Z,17.57
2022-10-02T13:28:46.331Z,16.84
2022-10-02T13:34:07.597Z,16.18
2022-10-02T13:39:30.350Z,16.28
2022-10-02T13:44:38.804Z,16.48
2022-10-02T13:49:59.145Z,16.10
2022-10-02T13:55:20.053Z,16.54
2022-10-02T14:00:40.174Z,21.66
2022-10-02T14:05:47.529Z,21.10
2022-10-02T14:11:03.128Z,22.23
2022-10-02T14:16:21.574Z,21.20
2022-10-02T14:21:31.964Z,21.31
2022-10-02T14:26:55.171Z,21.18
2022-10-02T14:32:24.782Z,20.93
2022-10-02T14:37:43.449Z,21.16
2022-10-02T14:43:03.857Z,18.95
2022-10-02T14:48:24.598Z,16.07
2022-10-02T14:53:47.030Z,16.12
2022-10-02T14:59:04.644Z,15.68
2022-10-02T15:04:28.834Z,16.03
2022-10-02T15:09:40.716Z,14.45
2022-10-02T15:14:59.693Z,13.99
2022-10-02T15:20:12.093Z,14.32
2022-10-02T15:25:18.337Z,14.86
2022-10-02T15:30:25.522Z,15.02
2022-10-02T15:35:48.307Z,15.11
2022-10-02T15:47:38.146Z,14.62
2022-10-02T15:52:49.149Z,15.38
2022-10-02T15:58:12.026Z,15.81
2022-10-02T16:03:24.357Z,14.90
2022-10-02T16:08:57.980Z,15.27
2022-10-02T16:14:10.387Z,15.07
2022-10-02T16:19:28.387Z,15.47
2022-10-02T16:24:48.903Z,15.55
2022-10-02T16:30:13.295Z,14.74
2022-10-02T16:36:20.042Z,14.56
2022-10-02T16:41:36.986Z,14.59
2022-10-02T16:46:45.695Z,13.96
2022-10-02T16:51:57.023Z,14.05
2022-10-02T16:57:03.706Z,13.74
2022-10-02T17:02:19.462Z,13.57
2022-10-02T17:07:31.441Z,13.62
2022-10-02T17:12:45.128Z,13.37
2022-10-02T17:17:56.165Z,13.34
2022-10-02T17:23:06.760Z,13.22
2022-10-02T17:28:20.617Z,13.06
2022-10-02T17:33:27.100Z,12.82
2022-10-02T17:38:45.200Z,12.71
2022-10-02T17:43:58.774Z,12.60
2022-10-02T17:49:09.976Z,12.69
2022-10-02T17:54:51.012Z,12.63
2022-10-02T18:00:07.812Z,12.55
2022-10-02T18:05:28.728Z,12.55
2022-10-02T18:10:42.289Z,12.51
2022-10-02T18:16:15.863Z,12.43
2022-10-02T18:21:27.778Z,12.33
2022-10-02T18:26:45.829Z,12.17
2022-10-02T18:32:13.148Z,12.28
2022-10-02T18:37:35.686Z,12.11
2022-10-02T18:42:50.145Z,12.04
2022-10-02T18:48:04.577Z,11.93
2022-10-02T18:53:28.636Z,11.95
2022-10-02T18:58:50.263Z,11.99
2022-10-02T19:04:09.445Z,12.05
2022-10-02T19:09:21.364Z,12.06
2022-10-02T19:14:34.222Z,12.14
2022-10-02T19:19:37.029Z,12.01
2022-10-02T19:24:42.942Z,11.88
2022-10-02T19:29:49.762Z,11.97
2022-10-02T19:34:59.931Z,12.09
2022-10-02T19:40:04.736Z,11.97
2022-10-02T19:45:24.435Z,11.98
2022-10-02T19:50:40.599Z,11.98
2022-10-02T19:55:44.396Z,11.75
2022-10-02T20:00:50.727Z,11.91
2022-10-02T20:05:59.024Z,11.52
2022-10-02T20:11:07.909Z,11.85
2022-10-02T20:16:34.436Z,11.65
2022-10-02T20:21:40.218Z,11.63
2022-10-02T20:26:45.686Z,11.28
2022-10-02T20:31:54.819Z,11.47
2022-10-02T20:37:05.351Z,11.37
2022-10-02T20:42:14.353Z,10.97
2022-10-02T20:47:55.670Z,11.20
2022-10-02T20:53:33.480Z,11.24
2022-10-02T20:58:50.390Z,10.97
2022-10-02T21:04:29.839Z,11.05
2022-10-02T21:10:19.995Z,11.10
2022-10-02T21:15:51.844Z,10.68
2022-10-02T21:21:22.286Z,10.77
2022-10-02T21:26:55.202Z,11.00
2022-10-02T21:32:22.917Z,10.43
2022-10-02T21:37:41.294Z,10.57
2022-10-02T21:43:17.672Z,10.21
2022-10-02T21:48:58.228Z,10.55
2022-10-02T21:54:29.404Z,10.57
2022-10-02T22:00:09.274Z,10.47
2022-10-02T22:05:40.408Z,10.32
2022-10-02T22:10:56.314Z,10.12
2022-10-02T22:16:15.259Z,10.12
2022-10-02T22:21:49.614Z,10.15
2022-10-02T22:27:14.008Z,10.40
2022-10-02T22:32:56.313Z,10.31
2022-10-02T22:38:15.018Z,10.36
2022-10-02T22:43:25.669Z,10.41
2022-10-02T22:48:37.229Z,10.42
2022-10-02T22:53:46.250Z,10.30
2022-10-02T22:58:58.403Z,10.06
2022-10-02T23:04:06.632Z,9.89
2022-10-02T23:09:18.278Z,10.02
2022-10-02T23:14:29.863Z,10.02
2022-10-02T23:19:43.964Z,10.26
2022-10-02T23:24:52.703Z,10.08
2022-10-02T23:30:00.268Z,9.44
2022-10-02T23:35:10.737Z,9.67
2022-10-02T23:40:44.656Z,9.72
2022-10-02T23:45:57.086Z,9.71
2022-10-02T23:51:12.838Z,9.54
2022-10-02T23:56:40.208Z,9.39
